createdAt,value
2022-09-17T00:01:14.421Z,95215.50
2022-09-17T00:03:43.916Z,95214.50
2022-09-17T00:06:12.257Z,95220.38
2022-09-17T00:08:41.354Z,95218.41
2022-09-17T00:11:39.097Z,95218.22
2022-09-17T00:14:09.335Z,95216.06
2022-09-17T00:16:42.976Z,95219.66
2022-09-17T00:19:15.954Z,95215.06
2022-09-17T00:21:46.410Z,95217.97
2022-09-17T00:24:14.795Z,95209.19
2022-09-17T00:26:48.548Z,95215.56
2022-09-17T00:29:22.918Z,95214.25
2022-09-17T00:31:52.209Z,95218.03
2022-09-17T00:34:20.074Z,95215.41
2022-09-17T00:36:57.413Z,95210.53
2022-09-17T00:39:28.259Z,95210.84
2022-09-17T00:41:54.970Z,95217.03
2022-09-17T00:44:42.328Z,95201.22
2022-09-17T00:47:34.865Z,95201.41
2022-09-17T00:50:14.859Z,95206.63
2022-09-17T00:52:53.840Z,95208.59
2022-09-17T01:09:49.365Z,95201.75
2022-09-17T01:12:31.751Z,95192.41
2022-09-17T01:15:23.802Z,95191.31
2022-09-17T01:17:59.729Z,95184.72
2022-09-17T01:20:45.640Z,95187.16
2022-09-17T01:23:40.001Z,95199.19
2022-09-17T01:26:45.994Z,95191.03
2022-09-17T01:29:46.433Z,95197.34
2022-09-17T01:32:51.109Z,95189.22
2022-09-17T01:35:46.480Z,95194.09
2022-09-17T01:38:43.376Z,95198.13
2022-09-17T01:41:20.931Z,95201.19
2022-09-17T01:44:08.103Z,95201.81
2022-09-17T01:47:02.204Z,95202.00
2022-09-17T01:49:35.468Z,95201.56
2022-09-17T01:52:02.165Z,95195.72
2022-09-17T01:54:43.000Z,95194.09
2022-09-17T01:57:16.477Z,95198.31
2022-09-17T01:59:54.576Z,95205.78
2022-09-17T02:02:31.229Z,95195.06
2022-09-17T02:05:16.586Z,95210.44
2022-09-17T02:07:49.805Z,95195.78
2022-09-17T02:10:20.958Z,95207.22
2022-09-17T02:13:08.313Z,95212.41
2022-09-17T02:15:42.525Z,95208.84
2022-09-17T02:18:24.582Z,95216.66
2022-09-17T02:21:12.432Z,95215.81
2022-09-17T02:23:47.913Z,95216.19
2022-09-17T02:26:20.008Z,95214.22
2022-09-17T02:29:06.340Z,95204.16
2022-09-17T02:31:35.668Z,95214.38
2022-09-17T02:34:05.800Z,95204.94
2022-09-17T02:36:36.606Z,95205.97
2022-09-17T02:39:04.707Z,95203.19
2022-09-17T02:41:37.592Z,95213.81
2022-09-17T02:44:22.724Z,95212.56
2022-09-17T02:47:25.663Z,95207.50
2022-09-17T02:50:02.920Z,95208.34
2022-09-17T02:52:54.033Z,95206.28
2022-09-17T02:55:34.803Z,95206.28
2022-09-17T02:58:16.369Z,95201.34
2022-09-17T03:00:46.274Z,95206.41
2022-09-17T03:03:39.776Z,95200.59
2022-09-17T03:06:06.990Z,95203.53
2022-09-17T03:08:40.965Z,95196.38
2022-09-17T03:11:09.196Z,95195.22
2022-09-17T03:13:36.464Z,95184.44
2022-09-17T03:16:06.887Z,95186.41
2022-09-17T03:18:33.967Z,95191.81
2022-09-17T03:21:00.585Z,95191.16
2022-09-17T03:23:28.128Z,95173.72
2022-09-17T03:25:55.388Z,95185.97
2022-09-17T03:28:22.470Z,95185.31
2022-09-17T03:30:49.165Z,95194.03
2022-09-17T03:33:15.852Z,95196.03
2022-09-17T03:35:44.274Z,95195.22
2022-09-17T03:38:11.645Z,95197.28
2022-09-17T03:40:38.482Z,95204.13
2022-09-17T03:43:06.092Z,95197.75
2022-09-17T03:45:32.765Z,95204.13
2022-09-17T03:47:59.431Z,95199.63
2022-09-17T03:50:26.039Z,95201.75
2022-09-17T03:52:52.905Z,95196.88
2022-09-17T03:55:19.552Z,95203.59
2022-09-17T03:57:46.213Z,95209.44
2022-09-17T04:00:15.438Z,95205.16
2022-09-17T04:02:43.103Z,95200.28
2022-09-17T04:05:10.269Z,95203.53
2022-09-17T04:07:37.023Z,95198.00
2022-09-17T04:10:05.336Z,95207.59
2022-09-17T04:12:32.364Z,95201.91
2022-09-17T04:14:58.959Z,95195.72
2022-09-17T04:17:25.585Z,95202.94
2022-09-17T04:19:53.577Z,95199.09
2022-09-17T04:22:20.236Z,95198.63
2022-09-17T04:24:46.853Z,95196.03
2022-09-17T04:27:13.501Z,95195.50
2022-09-17T04:29:40.117Z,95197.75
2022-09-17T04:32:07.114Z,95193.50
2022-09-17T04:34:33.712Z,95190.91
2022-09-17T04:37:00.541Z,95190.91
2022-09-17T04:39:27.094Z,95198.56
2022-09-17T04:41:53.723Z,95202.63
2022-09-17T04:44:20.668Z,95189.13
2022-09-17T04:46:47.376Z,95185.56
2022-09-17T04:49:19.938Z,95187.47
2022-09-17T04:51:46.885Z,95196.72
2022-09-17T04:54:14.686Z,95193.50
2022-09-17T04:56:41.335Z,95197.41
2022-09-17T04:59:07.945Z,95194.34
2022-09-17T05:01:34.557Z,95199.38
2022-09-17T05:04:01.410Z,95214.66
2022-09-17T05:06:28.007Z,95208.28
2022-09-17T05:08:54.586Z,95207.94
2022-09-17T05:11:21.207Z,95205.03
2022-09-17T05:13:48.563Z,95211.41
2022-09-17T05:16:15.538Z,95210.63
2022-09-17T05:18:42.246Z,95212.25
2022-09-17T05:21:08.883Z,95211.06
2022-09-17T05:23:35.586Z,95211.41
2022-09-17T05:26:06.516Z,95209.31
2022-09-17T05:28:33.362Z,95210.94
2022-09-17T05:31:01.216Z,95205.75
2022-09-17T05:33:28.457Z,95206.91
2022-09-17T05:35:55.117Z,95204.56
2022-09-17T05:38:21.969Z,95202.63
2022-09-17T05:40:51.539Z,95204.69
2022-09-17T05:43:18.206Z,95212.06
2022-09-17T05:45:44.890Z,95210.09
2022-09-17T05:48:15.540Z,95203.53
2022-09-17T05:50:42.191Z,95207.78
2022-09-17T05:53:12.478Z,95198.69
2022-09-17T05:55:39.538Z,95198.34
2022-09-17T05:58:18.385Z,95208.41
2022-09-17T06:00:47.165Z,95213.75
2022-09-17T06:03:15.557Z,95198.41
2022-09-17T06:05:42.366Z,95211.41
2022-09-17T06:08:09.824Z,95212.59
2022-09-17T06:10:38.605Z,95206.28
2022-09-17T06:13:05.455Z,95208.06
2022-09-17T06:15:32.133Z,95216.50
2022-09-17T06:18:00.104Z,95209.53
2022-09-17T06:20:26.848Z,95214.22
2022-09-17T06:22:57.882Z,95211.09
2022-09-17T06:25:25.153Z,95223.59
2022-09-17T06:27:51.836Z,95221.63
2022-09-17T06:30:18.523Z,95222.59
2022-09-17T06:32:45.106Z,95220.91
2022-09-17T06:35:11.711Z,95218.31
2022-09-17T06:37:40.348Z,95232.97
2022-09-17T06:40:08.256Z,95222.59
2022-09-17T06:42:35.025Z,95233.81
2022-09-17T06:45:07.125Z,95221.63
2022-09-17T06:47:35.271Z,95222.41
2022-09-17T06:50:02.243Z,95231.53
2022-09-17T06:52:29.269Z,95228.91
2022-09-17T06:54:56.519Z,95231.34
2022-09-17T06:57:23.211Z,95237.00
2022-09-17T06:59:50.295Z,95226.34
2022-09-17T07:02:17.028Z,95229.69
2022-09-17T07:04:43.728Z,95233.94
2022-09-17T07:07:10.524Z,95231.31
2022-09-17T07:09:37.173Z,95238.94
2022-09-17T07:12:07.697Z,95241.84
2022-09-17T07:14:34.328Z,95234.31
2022-09-17T07:17:00.927Z,95233.63
2022-09-17T07:19:27.556Z,95243.38
2022-09-17T07:21:54.352Z,95246.44
2022-09-17T07:24:20.968Z,95247.16
2022-09-17T07:26:47.610Z,95258.22
2022-09-17T07:29:14.257Z,95256.88
2022-09-17T07:31:41.001Z,95266.31
2022-09-17T07:34:07.652Z,95265.69
2022-09-17T07:36:34.317Z,95269.09
2022-09-17T07:39:00.941Z,95270.53
2022-09-17T07:41:27.573Z,95273.72
2022-09-17T07:43:55.481Z,95278.22
2022-09-17T07:46:22.614Z,95286.84
2022-09-17T07:48:51.060Z,95294.69
2022-09-17T07:51:20.492Z,95291.53
2022-09-17T07:53:47.970Z,95299.03
2022-09-17T07:56:14.798Z,95293.97
2022-09-17T07:58:42.534Z,95289.72
2022-09-17T08:01:15.649Z,95302.25
2022-09-17T08:03:44.263Z,95304.16
2022-09-17T08:06:13.635Z,95306.22
2022-09-17T08:08:41.018Z,95310.28
2022-09-17T08:11:13.563Z,95309.94
2022-09-17T08:13:40.253Z,95316.59
2022-09-17T08:16:10.211Z,95323.06
2022-09-17T08:18:36.848Z,95313.44
2022-09-17T08:21:06.327Z,95327.47
2022-09-17T08:23:36.621Z,95323.44
2022-09-17T08:26:04.820Z,95328.66
2022-09-17T08:28:31.964Z,95327.03
2022-09-17T08:31:07.368Z,95334.31
2022-09-17T08:33:39.437Z,95338.81
2022-09-17T08:36:07.950Z,95343.69
2022-09-17T08:38:38.426Z,95346.31
2022-09-17T08:41:11.370Z,95356.84
2022-09-17T08:44:01.909Z,95363.59
2022-09-17T08:46:33.619Z,95356.47
2022-09-17T08:49:18.452Z,95348.09
2022-09-17T08:51:53.260Z,95348.28
2022-09-17T08:54:36.142Z,95354.94
2022-09-17T08:57:28.785Z,95343.22
2022-09-17T09:00:16.320Z,95348.19
2022-09-17T09:02:56.283Z,95347.47
2022-09-17T09:05:26.065Z,95347.66
2022-09-17T09:08:00.096Z,95345.03
2022-09-17T09:10:31.703Z,95346.28
2022-09-17T09:13:00.655Z,95332.97
2022-09-17T09:15:40.757Z,95337.03
2022-09-17T09:18:35.830Z,95334.56
2022-09-17T09:21:21.011Z,95346.28
2022-09-17T09:24:08.277Z,95343.75
2022-09-17T09:26:58.658Z,95345.25
2022-09-17T09:30:04.266Z,95340.94
2022-09-17T09:32:54.408Z,95340.59
2022-09-17T09:35:33.484Z,95343.56
2022-09-17T09:38:12.599Z,95339.44
2022-09-17T09:40:51.171Z,95333.25
2022-09-17T09:44:03.213Z,95338.56
2022-09-17T09:46:59.002Z,95337.31
2022-09-17T09:49:44.391Z,95357.88
2022-09-17T09:52:34.966Z,95338.16
2022-09-17T09:55:24.505Z,95350.25
2022-09-17T09:58:03.287Z,95353.44
2022-09-17T10:00:38.620Z,95353.13
2022-09-17T10:03:11.069Z,95359.03
2022-09-17T10:05:37.765Z,95362.84
2022-09-17T10:08:15.354Z,95360.47
2022-09-17T10:11:02.881Z,95353.25
2022-09-17T10:13:32.515Z,95344.97
2022-09-17T10:16:29.397Z,95351.63
2022-09-17T10:19:14.298Z,95353.63
2022-09-17T10:21:42.923Z,95349.28
2022-09-17T10:24:14.487Z,95343.44
2022-09-17T10:26:41.502Z,95350.00
2022-09-17T10:29:18.121Z,95346.41
2022-09-17T10:31:52.693Z,95348.16
2022-09-17T10:34:31.172Z,95365.47
2022-09-17T10:36:58.610Z,95365.81
2022-09-17T10:39:25.188Z,95366.16
2022-09-17T10:42:00.933Z,95367.44
2022-09-17T10:44:30.331Z,95372.50
2022-09-17T10:47:04.538Z,95371.84
2022-09-17T10:49:53.767Z,95366.03
2022-09-17T10:52:32.736Z,95366.91
2022-09-17T10:55:02.359Z,95372.31
2022-09-17T10:57:48.672Z,95377.91
2022-09-17T11:00:19.959Z,95377.53
2022-09-17T11:03:23.735Z,95377.84
2022-09-17T11:06:14.157Z,95370.34
2022-09-17T11:09:03.135Z,95375.72
2022-09-17T11:11:59.792Z,95378.50
2022-09-17T11:14:26.408Z,95375.09
2022-09-17T11:17:08.289Z,95363.78
2022-09-17T11:20:01.258Z,95357.72
2022-09-17T11:22:42.232Z,95350.31
2022-09-17T11:25:40.331Z,95348.38
2022-09-17T11:28:29.202Z,95348.66
2022-09-17T11:31:15.225Z,95355.00
2022-09-17T11:34:07.837Z,95348.91
2022-09-17T11:36:49.009Z,95359.25
2022-09-17T11:39:25.876Z,95362.84
2022-09-17T11:41:55.591Z,95364.97
2022-09-17T11:44:38.513Z,95354.09
2022-09-17T11:47:25.212Z,95353.25
2022-09-17T11:50:21.436Z,95352.44
2022-09-17T11:53:00.336Z,95352.75
2022-09-17T11:55:34.793Z,95363.75
2022-09-17T11:58:12.182Z,95356.19
2022-09-17T12:00:46.650Z,95362.41
2022-09-17T12:03:36.196Z,95353.56
2022-09-17T12:06:09.974Z,95365.91
2022-09-17T12:08:51.049Z,95363.91
2022-09-17T12:11:17.667Z,95358.69
2022-09-17T12:13:49.308Z,95359.75
2022-09-17T12:16:27.828Z,95359.28
2022-09-17T12:19:05.575Z,95354.06
2022-09-17T12:21:46.676Z,95348.88
2022-09-17T12:24:22.545Z,95347.34
2022-09-17T12:27:13.636Z,95344.66
2022-09-17T12:30:04.513Z,95342.88
2022-09-17T12:32:57.428Z,95334.25
2022-09-17T12:36:02.898Z,95323.41
2022-09-17T12:39:03.294Z,95317.59
2022-09-17T12:42:08.202Z,95310.56
2022-09-17T12:44:44.066Z,95310.13
2022-09-17T12:47:22.038Z,95310.69
2022-09-17T12:50:02.781Z,95299.28
2022-09-17T12:53:02.319Z,95311.78
2022-09-17T12:56:12.451Z,95301.91
2022-09-17T12:58:51.166Z,95298.97
2022-09-17T13:01:22.703Z,95288.28
2022-09-17T13:04:11.954Z,95293.97
2022-09-17T13:07:09.004Z,95295.19
2022-09-17T13:09:38.314Z,95290.00
2022-09-17T13:12:08.892Z,95284.34
2022-09-17T13:15:15.686Z,95285.34
2022-09-17T13:18:23.815Z,95281.88
2022-09-17T13:21:24.167Z,95266.09
2022-09-17T13:23:53.759Z,95275.38
2022-09-17T13:26:32.694Z,95274.16
2022-09-17T13:28:59.338Z,95261.25
2022-09-17T13:31:34.851Z,95267.13
2022-09-17T13:34:19.947Z,95265.09
2022-09-17T13:36:49.722Z,95265.09
2022-09-17T13:39:48.099Z,95266.91
2022-09-17T13:42:17.344Z,95260.69
2022-09-17T13:44:48.565Z,95278.50
2022-09-17T13:47:24.335Z,95268.59
2022-09-17T13:49:55.123Z,95270.44
2022-09-17T13:52:38.678Z,95261.72
2022-09-17T13:55:07.156Z,95263.53
2022-09-17T13:57:47.385Z,95268.16
2022-09-17T14:00:50.061Z,95276.88
2022-09-17T14:03:29.057Z,95269.19
2022-09-17T14:05:56.562Z,95272.19
2022-09-17T14:08:31.515Z,95283.09
2022-09-17T14:11:01.518Z,95279.25
2022-09-17T14:13:40.493Z,95265.97
2022-09-17T14:16:28.583Z,95279.50
2022-09-17T14:18:59.072Z,95286.38
2022-09-17T14:21:29.849Z,95294.22
2022-09-17T14:24:03.708Z,95294.84
2022-09-17T14:26:57.890Z,95292.97
2022-09-17T14:29:30.383Z,95312.09
2022-09-17T14:31:57.657Z,95308.00
2022-09-17T14:34:26.976Z,95322.88
2022-09-17T14:36:55.920Z,95310.53
2022-09-17T14:39:37.142Z,95309.13
2022-09-17T14:42:07.479Z,95316.75
2022-09-17T14:44:35.383Z,95313.53
2022-09-17T14:47:07.335Z,95310.13
2022-09-17T14:49:35.761Z,95298.69
2022-09-17T14:52:19.739Z,95302.34
2022-09-17T14:54:46.389Z,95299.28
2022-09-17T14:57:27.024Z,95297.44
2022-09-17T15:00:00.671Z,95287.38
2022-09-17T15:02:30.299Z,95291.63
2022-09-17T15:04:57.520Z,95278.09
2022-09-17T15:07:25.159Z,95279.72
2022-09-17T15:09:55.281Z,95283.97
2022-09-17T15:12:28.903Z,95274.88
2022-09-17T15:14:57.255Z,95278.06
2022-09-17T15:17:24.209Z,95278.84
2022-09-17T15:19:56.756Z,95268.16
2022-09-17T15:22:28.182Z,95284.84
2022-09-17T15:25:23.871Z,95289.44
2022-09-17T15:27:54.455Z,95284.41
2022-09-17T15:30:23.771Z,95287.25
2022-09-17T15:32:55.126Z,95287.81
2022-09-17T15:35:57.892Z,95279.09
2022-09-17T15:38:29.688Z,95279.72
2022-09-17T15:41:22.629Z,95282.34
2022-09-17T15:43:50.669Z,95284.00
2022-09-17T15:46:26.872Z,95286.03
2022-09-17T15:48:55.635Z,95284.22
2022-09-17T15:51:34.848Z,95294.09
2022-09-17T15:54:05.077Z,95282.38
2022-09-17T15:56:37.408Z,95296.06
2022-09-17T15:59:05.731Z,95290.78
2022-09-17T16:01:32.511Z,95291.56
2022-09-17T16:03:59.590Z,95290.31
2022-09-17T16:06:26.866Z,95295.56
2022-09-17T16:08:59.263Z,95296.38
2022-09-17T16:11:31.216Z,95289.44
2022-09-17T16:14:00.084Z,95289.84
2022-09-17T16:16:37.802Z,95294.41
2022-09-17T16:19:06.581Z,95293.50
2022-09-17T16:21:33.273Z,95292.41
2022-09-17T16:23:59.883Z,95292.13
2022-09-17T16:26:31.142Z,95303.91
2022-09-17T16:29:04.578Z,95309.28
2022-09-17T16:31:31.566Z,95315.50
2022-09-17T16:33:59.024Z,95309.84
2022-09-17T16:36:25.658Z,95308.00
2022-09-17T16:38:52.231Z,95314.81
2022-09-17T16:41:18.864Z,95306.53
2022-09-17T16:43:45.437Z,95306.03
2022-09-17T16:46:12.121Z,95311.47
2022-09-17T16:48:38.961Z,95314.28
2022-09-17T16:51:09.570Z,95327.06
2022-09-17T16:53:36.203Z,95350.28
2022-09-17T16:56:07.934Z,95353.88
2022-09-17T16:58:34.692Z,95349.63
2022-09-17T17:01:09.360Z,95346.72
2022-09-17T17:03:36.165Z,95337.75
2022-09-17T17:06:03.743Z,95344.41
2022-09-17T17:08:34.139Z,95337.97
2022-09-17T17:11:01.635Z,95331.44
2022-09-17T17:13:28.276Z,95327.19
2022-09-17T17:15:55.410Z,95328.53
2022-09-17T17:18:23.172Z,95324.16
2022-09-17T17:20:50.411Z,95323.25
2022-09-17T17:23:17.078Z,95338.19
2022-09-17T17:25:43.774Z,95338.47
2022-09-17T17:28:10.995Z,95342.69
2022-09-17T17:30:38.600Z,95343.69
2022-09-17T17:33:05.486Z,95345.41
2022-09-17T17:35:32.179Z,95345.53
2022-09-17T17:37:58.884Z,95338.31
2022-09-17T17:40:26.822Z,95345.66
2022-09-17T17:42:53.757Z,95336.28
2022-09-17T17:45:20.662Z,95340.75
2022-09-17T17:47:47.414Z,95340.81
2022-09-17T17:50:15.860Z,95342.00
2022-09-17T17:52:47.846Z,95345.13
2022-09-17T17:55:15.953Z,95354.38
2022-09-17T17:57:42.608Z,95342.78
2022-09-17T18:00:12.503Z,95342.78
2022-09-17T18:02:40.372Z,95343.44
2022-09-17T18:05:07.354Z,95345.66
2022-09-17T18:07:34.117Z,95349.56
2022-09-17T18:10:00.769Z,95350.09
2022-09-17T18:12:27.392Z,95344.06
2022-09-17T18:14:54.012Z,95346.31
2022-09-17T18:17:20.715Z,95349.56
2022-09-17T18:19:47.308Z,95350.53
2022-09-17T18:22:14.202Z,95347.47
2022-09-17T18:24:40.818Z,95345.66
2022-09-17T18:27:07.442Z,95340.44
2022-09-17T18:29:34.120Z,95340.44
2022-09-17T18:32:00.794Z,95346.03
2022-09-17T18:34:27.433Z,95340.19
2022-09-17T18:36:54.036Z,95341.34
2022-09-17T18:42:08.536Z,95349.00
2022-09-17T18:44:35.261Z,95347.72
2022-09-17T18:47:01.936Z,95349.34
2022-09-17T18:49:28.877Z,95356.19
2022-09-17T18:51:55.461Z,95358.47
2022-09-17T18:54:22.073Z,95364.16
2022-09-17T18:56:48.731Z,95360.75
2022-09-17T18:59:15.396Z,95364.00
2022-09-17T19:01:42.106Z,95367.44
2022-09-17T19:04:08.812Z,95371.69
2022-09-17T19:06:36.046Z,95374.78
2022-09-17T19:09:04.614Z,95370.53
2022-09-17T19:11:31.287Z,95375.09
2022-09-17T19:13:58.272Z,95379.00
2022-09-17T19:16:25.120Z,95379.94
2022-09-17T19:18:51.923Z,95383.19
2022-09-17T19:21:23.366Z,95380.72
2022-09-17T19:23:51.973Z,95377.31
2022-09-17T19:26:21.751Z,95381.38
2022-09-17T19:28:51.658Z,95383.81
2022-09-17T19:31:18.640Z,95377.78
2022-09-17T19:33:45.447Z,95386.06
2022-09-17T19:36:16.732Z,95382.19
2022-09-17T19:38:44.138Z,95388.75
2022-09-17T19:41:19.287Z,95378.00
2022-09-17T19:43:46.629Z,95376.56
2022-09-17T19:46:19.131Z,95380.78
2022-09-17T19:48:50.806Z,95383.22
2022-09-17T19:51:18.754Z,95387.28
2022-09-17T19:53:45.792Z,95385.66
2022-09-17T19:56:14.620Z,95386.47
2022-09-17T19:58:41.983Z,95385.03
2022-09-17T20:01:09.422Z,95377.22
2022-09-17T20:03:38.353Z,95385.03
2022-09-17T20:06:07.187Z,95373.78
2022-09-17T20:08:37.985Z,95375.78
2022-09-17T20:11:09.478Z,95373.31
2022-09-17T20:13:36.893Z,95376.44
2022-09-17T20:16:05.900Z,95376.44
2022-09-17T20:18:34.037Z,95388.22
2022-09-17T20:21:00.727Z,95375.19
2022-09-17T20:23:31.970Z,95379.63
2022-09-17T20:25:58.645Z,95380.00
2022-09-17T20:28:25.219Z,95385.53
2022-09-17T20:31:03.869Z,95383.91
2022-09-17T20:33:30.743Z,95376.91
2022-09-17T20:36:09.194Z,95379.19
2022-09-17T20:41:22.732Z,95388.19
2022-09-17T20:43:51.220Z,95381.34
2022-09-17T20:46:19.101Z,95377.56
2022-09-17T20:48:45.850Z,95373.81
2022-09-17T20:51:15.488Z,95371.72
2022-09-17T20:53:42.796Z,95371.44
2022-09-17T20:56:14.889Z,95364.41
2022-09-17T20:58:53.548Z,95369.09
2022-09-17T21:01:26.307Z,95365.06
2022-09-17T21:03:54.210Z,95355.47
2022-09-17T21:06:26.815Z,95358.34
2022-09-17T21:08:54.302Z,95354.78
2022-09-17T21:11:23.260Z,95355.94
2022-09-17T21:13:50.487Z,95355.47
2022-09-17T21:16:17.814Z,95352.22
2022-09-17T21:18:45.023Z,95353.19
2022-09-17T21:21:16.618Z,95350.59
2022-09-17T21:23:44.439Z,95353.47
2022-09-17T21:26:17.401Z,95353.34
2022-09-17T21:28:46.529Z,95352.34
2022-09-17T21:31:15.305Z,95340.44
2022-09-17T21:33:42.898Z,95345.00
2022-09-17T21:36:15.326Z,95347.25
2022-09-17T21:38:43.016Z,95334.91
2022-09-17T21:41:15.479Z,95323.22
2022-09-17T21:43:43.134Z,95334.31
2022-09-17T21:46:12.402Z,95335.28
2022-09-17T21:48:47.765Z,95350.78
2022-09-17T21:51:25.685Z,95343.09
2022-09-17T21:53:55.016Z,95334.03
2022-09-17T21:56:22.217Z,95333.09
2022-09-17T21:58:57.494Z,95330.00
2022-09-17T22:01:27.789Z,95333.28
2022-09-17T22:03:56.418Z,95337.09
2022-09-17T22:06:26.578Z,95336.44
2022-09-17T22:08:54.375Z,95329.41
2022-09-17T22:11:24.078Z,95336.16
2022-09-17T22:13:53.622Z,95324.94
2022-09-17T22:16:22.213Z,95329.03
2022-09-17T22:18:50.332Z,95328.03
2022-09-17T22:21:22.484Z,95323.81
2022-09-17T22:23:50.684Z,95316.19
2022-09-17T22:26:19.039Z,95318.47
2022-09-17T22:28:45.677Z,95314.91
2022-09-17T22:31:13.141Z,95315.38
2022-09-17T22:33:42.633Z,95311.00
2022-09-17T22:36:13.682Z,95319.63
2022-09-17T22:38:40.807Z,95320.13
2022-09-17T22:41:12.497Z,95321.44
2022-09-17T22:43:39.472Z,95319.78
2022-09-17T22:46:17.862Z,95327.13
2022-09-17T22:48:44.801Z,95333.16
2022-09-17T22:51:12.181Z,95336.72
2022-09-17T22:53:40.371Z,95336.91
2022-09-17T22:56:09.266Z,95336.25
2022-09-17T22:58:36.006Z,95329.31
2022-09-17T23:01:06.195Z,95329.81
2022-09-17T23:03:33.168Z,95328.97
2022-09-17T23:06:03.796Z,95335.81
2022-09-17T23:08:30.378Z,95331.75
2022-09-17T23:10:57.101Z,95335.00
2022-09-17T23:13:23.913Z,95338.91
2022-09-17T23:15:50.596Z,95330.13
2022-09-17T23:18:17.318Z,95328.28
2022-09-17T23:20:44.178Z,95332.03
2022-09-17T23:23:15.826Z,95333.50
2022-09-17T23:25:49.842Z,95326.72
2022-09-17T23:32:13.637Z,95315.47
2022-09-17T23:39:24.921Z,95329.63
2022-09-17T23:45:37.095Z,95325.59
2022-09-17T23:49:04.707Z,95320.06
2022-09-17T23:52:30.895Z,95325.44
2022-09-17T23:54:59.762Z,95326.09
2022-09-17T23:58:15.205Z,95336.63
